Time;durP1;ratioP1;P1;durP2;ratioP2;P2;SDS_P1;SDS_P2;PMS_P1;PMS_P2;Temp;Humidity;BMP_temperature;BMP_pressure;BME280_temperature;BME280_humidity;BME280_pressure;Samples;Min_cycle;Max_cycle;Signal;HPM_P1;HPM_P2
2022/12/31 00:02:10;;;;;;;224.68;210.95;;;12.70;99.90;;;;;;5098116;28;20036;-68
2022/12/31 00:04:36;;;;;;;223.52;210.50;;;12.70;99.90;;;;;;5098168;28;20036;-67
2022/12/31 00:07:01;;;;;;;219.73;206.88;;;12.60;99.90;;;;;;5098159;28;20043;-67
2022/12/31 00:09:27;;;;;;;218.90;206.10;;;12.60;99.90;;;;;;5098102;28;20086;-67
2022/12/31 00:11:52;;;;;;;219.70;207.13;;;12.70;99.90;;;;;;5097969;28;20036;-68
2022/12/31 00:14:18;;;;;;;216.75;203.82;;;12.70;99.90;;;;;;5097592;28;20036;-67
2022/12/31 00:16:44;;;;;;;218.10;204.98;;;12.60;99.90;;;;;;5097963;28;20087;-67
2022/12/31 00:19:10;;;;;;;220.98;206.90;;;12.60;99.90;;;;;;5096962;28;20039;-67
2022/12/31 00:21:37;;;;;;;225.00;211.43;;;12.70;99.90;;;;;;5097900;28;20050;-67
2022/12/31 00:24:04;;;;;;;227.55;213.13;;;12.70;99.90;;;;;;5096561;28;20070;-67
2022/12/31 00:26:31;;;;;;;226.55;212.40;;;12.70;99.90;;;;;;5097702;28;20054;-67
2022/12/31 00:28:58;;;;;;;229.57;214.93;;;12.60;99.90;;;;;;5097758;28;20048;-67
2022/12/31 00:31:30;;;;;;;231.85;217.18;;;12.60;99.90;;;;;;5097647;28;20047;-67
2022/12/31 00:33:56;;;;;;;231.02;216.02;;;12.60;99.90;;;;;;5096937;28;20067;-67
2022/12/31 00:36:28;;;;;;;229.57;214.70;;;12.60;99.90;;;;;;5096275;28;20051;-67
2022/12/31 00:38:55;;;;;;;235.10;219.48;;;12.60;99.90;;;;;;5097607;28;20040;-68
2022/12/31 00:41:22;;;;;;;233.85;218.90;;;12.60;99.90;;;;;;5097521;28;20119;-67
2022/12/31 00:43:48;;;;;;;237.55;222.45;;;12.60;99.90;;;;;;5097084;28;20048;-67
2022/12/31 00:46:15;;;;;;;239.55;224.20;;;12.60;99.90;;;;;;5097440;28;20085;-67
2022/12/31 00:48:41;;;;;;;240.10;225.25;;;12.60;99.90;;;;;;5097395;28;20325;-67
2022/12/31 00:51:09;;;;;;;246.05;229.60;;;12.60;99.90;;;;;;5097291;28;20040;-67
2022/12/31 00:53:36;;;;;;;245.77;230.18;;;12.60;99.90;;;;;;5097043;28;20129;-67
2022/12/31 00:56:05;;;;;;;246.23;230.40;;;12.60;99.90;;;;;;5098004;28;20036;-67
2022/12/31 00:58:31;;;;;;;241.48;224.95;;;12.60;99.90;;;;;;5097216;28;20086;-67
2022/12/31 01:00:57;;;;;;;241.02;224.85;;;12.60;99.90;;;;;;5096887;28;20460;-67
2022/12/31 01:03:23;;;;;;;240.48;225.77;;;12.60;99.90;;;;;;5097975;28;20040;-67
2022/12/31 01:05:49;;;;;;;241.90;226.25;;;12.60;99.90;;;;;;5096811;28;20040;-67
2022/12/31 01:08:16;;;;;;;240.00;225.05;;;12.60;99.90;;;;;;5097028;28;20068;-67
2022/12/31 01:13:30;;;;;;;242.18;226.63;;;12.70;99.90;;;;;;5096671;28;20063;-68
2022/12/31 01:15:56;;;;;;;236.85;221.90;;;12.70;99.90;;;;;;5096977;28;20409;-67
2022/12/31 01:18:22;;;;;;;234.27;219.70;;;12.70;99.90;;;;;;5096961;28;20413;-67
2022/12/31 01:20:47;;;;;;;232.85;218.65;;;12.70;99.90;;;;;;5096869;28;20043;-68
2022/12/31 01:23:13;;;;;;;235.70;220.50;;;12.60;99.90;;;;;;5095891;28;20044;-67
2022/12/31 01:25:42;;;;;;;236.65;221.93;;;12.70;99.90;;;;;;5096823;28;20040;-67
2022/12/31 01:28:08;;;;;;;234.98;220.02;;;12.80;99.90;;;;;;5096522;28;20123;-67
2022/12/31 01:30:38;;;;;;;227.70;212.20;;;12.70;99.90;;;;;;5096720;28;20101;-67
2022/12/31 01:33:04;;;;;;;231.13;216.45;;;12.70;99.90;;;;;;5096598;28;20051;-67
2022/12/31 01:35:32;;;;;;;231.85;217.15;;;12.70;99.90;;;;;;5096770;28;20036;-68
2022/12/31 01:37:58;;;;;;;235.23;220.90;;;12.70;99.90;;;;;;5095384;28;20051;-67
2022/12/31 01:40:23;;;;;;;235.90;221.10;;;12.70;99.90;;;;;;5096703;28;20040;-67
2022/12/31 01:42:58;;;;;;;238.07;223.40;;;12.70;99.90;;;;;;5096658;28;20037;-68
2022/12/31 01:45:24;;;;;;;235.63;221.20;;;12.70;99.90;;;;;;5095961;28;20418;-67
2022/12/31 01:47:56;;;;;;;243.35;227.93;;;12.70;99.90;;;;;;5096621;28;20047;-67
2022/12/31 01:50:29;;;;;;;239.82;225.27;;;12.70;99.90;;;;;;5096573;28;20326;-67
2022/12/31 01:53:01;;;;;;;235.48;221.52;;;12.80;99.90;;;;;;5096327;28;20491;-67
2022/12/31 01:55:35;;;;;;;236.00;222.20;;;12.80;99.90;;;;;;5096642;28;20069;-67
2022/12/31 01:58:09;;;;;;;230.68;217.35;;;12.80;99.90;;;;;;5096568;28;20040;-67
2022/12/31 02:00:35;;;;;;;231.63;217.73;;;12.70;99.90;;;;;;5095256;28;20047;-68
2022/12/31 02:03:02;;;;;;;228.93;215.70;;;12.70;99.90;;;;;;5096490;28;20044;-67
2022/12/31 02:05:55;;;;;;;227.07;214.27;;;12.70;99.90;;;;;;5096180;28;20075;-67
2022/12/31 02:08:21;;;;;;;230.82;217.50;;;12.80;99.90;;;;;;5096493;28;20090;-68
2022/12/31 02:10:46;;;;;;;232.32;218.73;;;12.80;99.90;;;;;;5096411;28;20051;-68
2022/12/31 02:13:13;;;;;;;234.00;220.05;;;12.90;99.90;;;;;;5096432;28;20040;-68
2022/12/31 02:15:47;;;;;;;238.50;223.88;;;12.90;99.90;;;;;;5095971;28;20032;-68
2022/12/31 02:18:24;;;;;;;236.27;221.45;;;12.90;99.90;;;;;;5096073;28;20093;-68
2022/12/31 02:21:08;;;;;;;238.32;224.52;;;13.00;99.90;;;;;;5095452;28;20127;-67
2022/12/31 02:23:49;;;;;;;240.43;226.10;;;12.90;99.90;;;;;;5100245;28;20094;-68
2022/12/31 02:26:26;;;;;;;239.77;225.13;;;12.80;99.90;;;;;;5100143;28;20039;-68
2022/12/31 02:29:07;;;;;;;239.13;224.48;;;12.90;99.90;;;;;;5099779;28;20423;-68
2022/12/31 02:31:43;;;;;;;239.38;224.98;;;12.90;99.90;;;;;;5099695;28;20429;-67
2022/12/31 02:34:09;;;;;;;234.88;220.93;;;12.80;99.90;;;;;;5108285;28;20056;-68
2022/12/31 02:36:38;;;;;;;235.98;221.65;;;12.80;99.90;;;;;;5106937;27;20429;-67
2022/12/31 02:39:06;;;;;;;234.20;220.15;;;12.80;99.90;;;;;;5099844;28;20044;-67
2022/12/31 02:41:50;;;;;;;237.18;222.90;;;12.80;99.90;;;;;;5099537;28;20444;-68
2022/12/31 02:44:23;;;;;;;238.55;223.68;;;12.80;99.90;;;;;;5099117;28;20374;-68
2022/12/31 02:47:08;;;;;;;239.05;224.85;;;12.80;99.90;;;;;;5099711;28;20075;-68
2022/12/31 02:50:01;;;;;;;239.30;225.07;;;12.80;99.90;;;;;;5099669;28;20036;-68
2022/12/31 02:52:38;;;;;;;235.88;221.88;;;12.70;99.90;;;;;;5099722;28;20264;-67
2022/12/31 02:55:10;;;;;;;240.65;226.32;;;12.70;99.90;;;;;;5099313;28;20048;-68
2022/12/31 02:57:41;;;;;;;237.38;223.40;;;12.70;99.90;;;;;;5099510;28;20345;-68
2022/12/31 03:02:57;;;;;;;232.10;218.35;;;12.70;99.90;;;;;;5099360;28;20059;-67
2022/12/31 03:05:26;;;;;;;230.88;217.00;;;12.70;99.90;;;;;;5099264;28;20032;-67
2022/12/31 03:07:52;;;;;;;225.55;212.13;;;12.70;99.90;;;;;;5099166;28;20044;-68
2022/12/31 03:10:18;;;;;;;226.43;212.88;;;12.70;99.90;;;;;;5097792;28;20040;-68
2022/12/31 03:12:45;;;;;;;228.95;215.90;;;12.70;99.90;;;;;;5099075;28;20040;-68
2022/12/31 03:15:41;;;;;;;226.98;213.82;;;12.70;99.90;;;;;;5098798;28;20036;-68
2022/12/31 03:18:15;;;;;;;226.63;213.65;;;12.80;99.90;;;;;;5090036;28;20048;-67
2022/12/31 03:26:28;;;;;;;226.93;214.05;;;12.60;99.90;;;;;;5097722;28;20131;-68
2022/12/31 03:28:54;;;;;;;223.38;210.77;;;12.60;99.90;;;;;;5098913;28;20126;-67
2022/12/31 03:31:20;;;;;;;221.43;209.07;;;12.50;99.90;;;;;;5098842;28;20068;-67
2022/12/31 03:33:46;;;;;;;221.20;208.82;;;12.50;99.90;;;;;;5097008;28;20074;-67
2022/12/31 03:36:13;;;;;;;222.18;209.68;;;12.50;99.90;;;;;;5098372;28;20055;-68
2022/12/31 03:38:40;;;;;;;220.65;208.43;;;12.50;99.90;;;;;;5097427;28;20044;-67
2022/12/31 03:41:08;;;;;;;220.07;208.07;;;12.50;99.90;;;;;;5098683;28;20040;-67
2022/12/31 03:43:34;;;;;;;219.15;207.32;;;12.40;99.90;;;;;;5098625;28;20101;-68
2022/12/31 03:46:00;;;;;;;220.05;208.20;;;12.40;99.90;;;;;;5098193;28;20409;-67
2022/12/31 03:48:26;;;;;;;217.40;205.35;;;12.40;99.90;;;;;;5098256;28;20044;-67
2022/12/31 03:50:51;;;;;;;214.98;203.18;;;12.40;99.90;;;;;;5098404;28;20062;-67
2022/12/31 03:53:17;;;;;;;216.85;204.95;;;12.50;99.90;;;;;;5097469;28;20468;-67
2022/12/31 03:55:43;;;;;;;215.20;203.00;;;12.40;99.90;;;;;;5098339;28;20115;-67
2022/12/31 03:58:09;;;;;;;213.75;201.85;;;12.40;99.90;;;;;;5098368;28;20102;-68
2022/12/31 04:00:35;;;;;;;215.00;202.93;;;12.40;99.90;;;;;;5098339;28;20065;-68
2022/12/31 04:03:01;;;;;;;214.98;202.98;;;12.40;99.90;;;;;;5097011;28;20083;-68
2022/12/31 04:05:26;;;;;;;213.98;202.38;;;12.40;99.90;;;;;;5097931;28;20044;-68
2022/12/31 04:07:54;;;;;;;216.00;204.10;;;12.40;99.90;;;;;;5098203;28;20040;-68
2022/12/31 04:10:20;;;;;;;219.25;207.00;;;12.20;99.90;;;;;;5098060;28;20154;-68
2022/12/31 04:12:46;;;;;;;215.98;203.88;;;12.30;99.90;;;;;;5098122;28;20090;-67
2022/12/31 04:15:17;;;;;;;212.98;200.88;;;12.20;99.90;;;;;;5097666;28;20472;-67
2022/12/31 04:17:43;;;;;;;217.43;204.85;;;12.20;99.90;;;;;;5097643;28;20433;-68
2022/12/31 04:20:10;;;;;;;219.88;206.98;;;12.20;99.90;;;;;;5097964;28;20132;-68
2022/12/31 04:22:36;;;;;;;221.93;208.65;;;12.20;99.90;;;;;;5097885;28;20028;-68
2022/12/31 04:25:02;;;;;;;228.05;214.75;;;12.30;99.90;;;;;;5097863;28;20336;-68
2022/12/31 04:27:28;;;;;;;229.23;216.02;;;12.40;99.90;;;;;;5097515;28;20098;-67
2022/12/31 04:29:53;;;;;;;230.57;216.93;;;12.30;99.90;;;;;;5097636;28;20035;-67
2022/12/31 04:32:19;;;;;;;231.27;217.85;;;12.40;99.90;;;;;;5097667;28;20032;-67
2022/12/31 04:34:45;;;;;;;234.13;220.57;;;12.40;99.90;;;;;;5097666;28;20120;-67
2022/12/31 04:37:11;;;;;;;230.63;217.27;;;12.40;99.90;;;;;;5097204;28;20430;-67
2022/12/31 04:39:36;;;;;;;235.73;220.82;;;12.40;99.90;;;;;;5096501;28;20066;-68
2022/12/31 04:42:02;;;;;;;231.93;218.63;;;12.30;99.90;;;;;;5096240;28;20051;-67
2022/12/31 04:44:28;;;;;;;230.93;217.35;;;12.50;99.90;;;;;;5096312;28;20043;-67
2022/12/31 04:46:54;;;;;;;230.57;216.98;;;12.30;99.90;;;;;;5097475;28;20421;-67
2022/12/31 04:49:19;;;;;;;232.45;218.55;;;12.30;99.90;;;;;;5097390;28;20040;-68
2022/12/31 04:51:45;;;;;;;237.05;223.07;;;12.40;99.90;;;;;;5097281;28;20047;-67
2022/12/31 04:54:10;;;;;;;238.82;225.10;;;12.40;99.90;;;;;;5097293;28;20028;-68
2022/12/31 04:56:36;;;;;;;240.75;226.90;;;12.40;99.90;;;;;;5097302;28;20036;-67
2022/12/31 04:59:03;;;;;;;238.55;224.13;;;12.40;99.90;;;;;;5097243;28;20094;-67
2022/12/31 05:01:29;;;;;;;235.00;220.95;;;12.40;99.90;;;;;;5096932;28;20131;-68
2022/12/31 05:03:55;;;;;;;235.32;221.43;;;12.40;99.90;;;;;;5096870;28;20114;-67
2022/12/31 05:06:22;;;;;;;238.55;224.27;;;12.50;99.90;;;;;;5096807;28;20047;-67
2022/12/31 05:08:48;;;;;;;241.30;227.40;;;12.40;99.90;;;;;;5097100;28;20044;-67
2022/12/31 05:11:14;;;;;;;238.85;224.75;;;12.40;99.90;;;;;;5096824;28;20036;-68
2022/12/31 05:13:40;;;;;;;243.88;229.38;;;12.40;99.90;;;;;;5096997;28;20035;-68
2022/12/31 05:16:06;;;;;;;244.85;230.90;;;12.40;99.90;;;;;;5096581;28;20043;-68
2022/12/31 05:18:33;;;;;;;242.02;227.63;;;12.40;99.90;;;;;;5096665;28;20421;-68
2022/12/31 05:20:59;;;;;;;242.57;228.30;;;12.40;99.90;;;;;;5096937;28;20036;-68
2022/12/31 05:23:25;;;;;;;243.32;228.60;;;12.40;99.90;;;;;;5096895;28;20046;-67
2022/12/31 05:25:51;;;;;;;243.95;229.05;;;12.50;99.90;;;;;;5096848;28;20043;-68
2022/12/31 05:28:17;;;;;;;245.57;230.55;;;12.40;99.90;;;;;;5096882;28;20080;-68
2022/12/31 05:30:43;;;;;;;240.48;226.15;;;12.40;99.90;;;;;;5096463;28;20047;-67
2022/12/31 05:33:09;;;;;;;245.18;230.18;;;12.40;99.90;;;;;;5096801;28;20055;-68
2022/12/31 05:35:35;;;;;;;247.65;232.32;;;12.50;99.90;;;;;;5096505;28;20048;-68
2022/12/31 05:38:01;;;;;;;247.13;231.82;;;12.60;99.90;;;;;;5096469;28;20093;-68
2022/12/31 05:40:27;;;;;;;249.50;233.98;;;12.60;99.90;;;;;;5096719;28;20051;-67
2022/12/31 05:42:53;;;;;;;239.32;225.02;;;12.50;99.90;;;;;;5095367;28;20052;-67
2022/12/31 05:45:19;;;;;;;244.80;229.40;;;12.50;99.90;;;;;;5096271;28;20111;-67
2022/12/31 05:47:45;;;;;;;248.98;234.07;;;12.50;99.90;;;;;;5096653;28;20047;-68
2022/12/31 05:50:14;;;;;;;246.45;231.15;;;12.50;99.90;;;;;;5096564;28;20425;-68
2022/12/31 05:52:40;;;;;;;249.18;234.18;;;12.50;99.90;;;;;;5096599;28;20306;-68
2022/12/31 05:55:06;;;;;;;245.65;230.60;;;12.40;99.90;;;;;;5097118;28;20032;-68
2022/12/31 05:57:32;;;;;;;246.18;231.13;;;12.30;99.90;;;;;;5100359;28;20043;-67
2022/12/31 05:59:57;;;;;;;240.98;226.18;;;12.30;99.90;;;;;;5100679;28;20039;-67
2022/12/31 06:02:23;;;;;;;240.02;225.27;;;12.30;99.90;;;;;;5100622;28;20046;-67
2022/12/31 06:04:49;;;;;;;239.10;224.65;;;12.20;99.90;;;;;;5100584;28;20055;-67
2022/12/31 06:07:14;;;;;;;239.95;225.73;;;12.20;99.90;;;;;;5100525;28;20119;-67
2022/12/31 06:09:40;;;;;;;242.30;227.30;;;12.20;99.90;;;;;;5100482;28;20136;-67
2022/12/31 06:12:06;;;;;;;234.70;220.50;;;12.20;99.90;;;;;;5100116;28;20036;-67
2022/12/31 06:14:33;;;;;;;237.98;223.57;;;12.20;99.90;;;;;;5098856;28;20161;-68
2022/12/31 06:16:59;;;;;;;236.30;222.23;;;12.10;99.90;;;;;;5100347;28;20044;-67
2022/12/31 06:19:24;;;;;;;239.45;224.98;;;11.90;99.90;;;;;;5099965;28;20337;-67
2022/12/31 06:21:50;;;;;;;237.95;223.60;;;11.80;99.90;;;;;;5099938;28;20046;-67
2022/12/31 06:24:16;;;;;;;237.52;222.63;;;11.80;99.90;;;;;;5100211;28;20111;-67
2022/12/31 06:26:42;;;;;;;232.88;218.50;;;11.90;99.90;;;;;;5100163;28;20440;-68
2022/12/31 06:29:07;;;;;;;227.73;213.50;;;11.90;99.90;;;;;;5100075;28;20433;-68
2022/12/31 06:31:33;;;;;;;224.25;210.18;;;12.00;99.90;;;;;;5100026;28;20046;-68
2022/12/31 06:33:59;;;;;;;217.85;204.68;;;12.00;99.90;;;;;;5099697;28;20047;-67
2022/12/31 06:36:25;;;;;;;220.05;206.32;;;12.00;99.90;;;;;;5099472;28;20069;-67
2022/12/31 06:38:52;;;;;;;221.73;207.05;;;12.10;99.90;;;;;;5099919;28;20040;-67
2022/12/31 06:41:18;;;;;;;222.85;208.27;;;12.10;99.90;;;;;;5099815;28;20046;-67
2022/12/31 06:43:43;;;;;;;226.23;211.68;;;12.20;99.90;;;;;;5099864;28;20110;-67
2022/12/31 06:46:15;;;;;;;223.02;209.20;;;12.30;99.90;;;;;;5099127;28;20077;-68
2022/12/31 06:48:42;;;;;;;218.95;205.77;;;12.30;99.90;;;;;;5099760;28;20065;-67
2022/12/31 06:51:16;;;;;;;221.77;208.02;;;12.30;99.90;;;;;;5099562;28;20079;-67
2022/12/31 06:53:42;;;;;;;215.05;201.32;;;12.20;99.90;;;;;;5098606;28;20051;-67
2022/12/31 06:56:13;;;;;;;218.45;205.07;;;12.30;99.90;;;;;;5099578;28;20040;-67
2022/12/31 06:58:40;;;;;;;221.43;208.07;;;12.30;99.90;;;;;;5099580;28;20032;-67
2022/12/31 07:01:35;;;;;;;219.98;206.82;;;12.30;99.90;;;;;;5099171;28;20456;-67
2022/12/31 07:04:18;;;;;;;214.35;201.27;;;12.30;99.90;;;;;;5099478;28;20126;-67
2022/12/31 07:06:50;;;;;;;212.23;200.27;;;12.20;99.90;;;;;;5098662;28;20040;-67
2022/12/31 07:09:28;;;;;;;212.65;200.35;;;12.20;99.90;;;;;;5099402;28;20039;-67
2022/12/31 07:12:18;;;;;;;211.48;199.40;;;12.20;99.90;;;;;;5099231;28;20046;-67
2022/12/31 07:15:00;;;;;;;212.20;199.98;;;12.20;99.90;;;;;;5098521;28;20039;-67
2022/12/31 07:17:37;;;;;;;198.80;186.95;;;12.10;99.90;;;;;;5097916;28;20056;-67
2022/12/31 07:20:14;;;;;;;203.35;191.18;;;11.90;99.90;;;;;;5099167;28;20036;-67
2022/12/31 07:22:41;;;;;;;187.52;176.13;;;12.00;99.90;;;;;;5099071;28;20115;-67
2022/12/31 07:25:11;;;;;;;202.15;190.02;;;11.80;99.90;;;;;;5099052;28;20063;-67
2022/12/31 07:27:37;;;;;;;202.05;190.32;;;11.80;99.90;;;;;;5099025;28;20032;-67
2022/12/31 07:30:14;;;;;;;202.30;190.02;;;11.80;99.90;;;;;;5097766;28;20054;-67
2022/12/31 07:33:08;;;;;;;199.15;187.38;;;11.90;99.90;;;;;;5097969;28;20036;-67
2022/12/31 07:35:57;;;;;;;198.68;186.75;;;11.80;99.90;;;;;;5098539;28;20055;-67
2022/12/31 07:38:23;;;;;;;192.57;181.52;;;11.80;99.90;;;;;;5098838;28;20118;-67
2022/12/31 07:40:57;;;;;;;195.57;183.88;;;11.90;99.90;;;;;;5098726;28;20075;-67
2022/12/31 07:43:34;;;;;;;191.82;181.00;;;12.10;99.90;;;;;;5098694;28;20039;-67
2022/12/31 07:46:19;;;;;;;189.35;178.77;;;12.10;99.90;;;;;;5098252;28;20040;-67
2022/12/31 07:48:45;;;;;;;189.48;178.27;;;12.10;99.90;;;;;;5098330;28;20141;-67
2022/12/31 07:51:11;;;;;;;190.30;178.93;;;12.10;99.90;;;;;;5098469;28;20119;-67
2022/12/31 07:53:37;;;;;;;178.25;167.93;;;12.10;99.90;;;;;;5097512;28;20046;-67
2022/12/31 07:56:05;;;;;;;195.00;182.95;;;12.10;99.90;;;;;;5098439;28;20417;-67
2022/12/31 07:58:44;;;;;;;192.93;181.88;;;12.20;99.90;;;;;;5098364;28;20317;-67
2022/12/31 08:01:13;;;;;;;192.05;181.00;;;12.30;99.90;;;;;;5098357;28;20043;-67
2022/12/31 08:03:56;;;;;;;199.32;188.05;;;12.40;99.90;;;;;;5098282;28;20040;-67
2022/12/31 08:06:48;;;;;;;197.55;185.88;;;12.50;99.90;;;;;;5098224;28;20040;-67
2022/12/31 08:09:38;;;;;;;198.68;187.07;;;12.50;99.90;;;;;;5098195;28;20067;-67
2022/12/31 08:12:03;;;;;;;202.00;190.93;;;12.40;99.90;;;;;;5098120;28;20047;-67
2022/12/31 08:14:31;;;;;;;202.48;190.52;;;12.30;99.90;;;;;;5097668;28;20032;-67
2022/12/31 08:16:57;;;;;;;202.02;190.45;;;12.30;99.90;;;;;;5098043;28;20032;-67
2022/12/31 08:19:31;;;;;;;204.98;193.55;;;12.30;99.90;;;;;;5096581;28;20047;-67
2022/12/31 08:22:18;;;;;;;208.60;197.00;;;12.10;99.90;;;;;;5097964;28;20375;-67
2022/12/31 08:24:59;;;;;;;204.80;193.60;;;12.10;99.90;;;;;;5098123;28;20044;-67
2022/12/31 08:27:55;;;;;;;206.35;194.60;;;12.00;99.90;;;;;;5097877;28;20039;-67
2022/12/31 08:30:22;;;;;;;202.75;191.25;;;12.00;99.90;;;;;;5097810;28;20040;-67
2022/12/31 08:32:50;;;;;;;196.02;184.98;;;11.90;99.90;;;;;;5097434;28;20539;-67
2022/12/31 08:35:25;;;;;;;196.48;185.25;;;11.80;99.90;;;;;;5097470;28;20040;-67
2022/12/31 08:37:57;;;;;;;191.63;180.70;;;11.80;99.90;;;;;;5097387;28;20417;-67
2022/12/31 08:40:44;;;;;;;194.35;183.63;;;12.00;99.90;;;;;;5097303;28;20417;-67
2022/12/31 08:43:10;;;;;;;;;;;11.90;99.90;;;;;;5098270;28;20115;-67
2022/12/31 08:45:45;;;;;;;189.00;178.70;;;12.00;99.90;;;;;;5097282;28;19962;-68
2022/12/31 08:48:32;;;;;;;190.85;180.80;;;12.10;99.90;;;;;;5097532;28;20043;-67
2022/12/31 08:50:58;;;;;;;179.93;170.30;;;12.20;99.90;;;;;;5096039;28;20135;-67
2022/12/31 08:53:24;;;;;;;176.38;166.82;;;12.20;99.90;;;;;;5097309;28;20047;-67
2022/12/31 08:55:59;;;;;;;187.68;177.57;;;12.10;99.90;;;;;;5096022;28;20043;-67
2022/12/31 08:58:43;;;;;;;183.25;173.05;;;12.20;99.90;;;;;;5097312;28;20040;-67
2022/12/31 09:01:11;;;;;;;185.10;174.75;;;12.20;99.90;;;;;;5097270;28;20046;-71
2022/12/31 09:04:02;;;;;;;188.68;178.25;;;12.30;99.90;;;;;;5097170;28;20056;-70
2022/12/31 09:06:39;;;;;;;180.73;171.02;;;12.40;99.90;;;;;;5087652;28;20100;-66
2022/12/31 09:09:04;;;;;;;;;;;12.40;99.90;;;;;;5097818;28;20337;-66
2022/12/31 09:12:07;;;;;;;181.07;171.27;;;12.50;99.90;;;;;;5096859;28;19920;-68
2022/12/31 09:15:02;;;;;;;176.73;167.00;;;12.50;99.90;;;;;;5096613;28;20047;-67
2022/12/31 09:17:39;;;;;;;173.27;163.57;;;12.50;99.90;;;;;;5092845;28;20437;-67
2022/12/31 09:20:05;;;;;;;173.18;163.77;;;12.60;99.90;;;;;;5097290;28;20054;-68
2022/12/31 09:22:31;;;;;;;163.77;154.63;;;12.60;99.90;;;;;;5096656;28;20410;-67
2022/12/31 09:24:57;;;;;;;169.55;160.38;;;12.70;99.90;;;;;;5096579;28;20043;-68
2022/12/31 09:27:40;;;;;;;169.85;160.80;;;12.70;99.90;;;;;;5095750;28;20047;-67
2022/12/31 09:30:08;;;;;;;173.52;163.80;;;12.70;99.90;;;;;;5096008;28;20382;-67
2022/12/31 09:32:45;;;;;;;171.63;162.30;;;12.70;99.90;;;;;;5096317;28;20036;-68
2022/12/31 09:35:32;;;;;;;170.32;160.82;;;12.80;99.90;;;;;;5096553;28;20047;-67
2022/12/31 09:38:04;;;;;;;166.45;157.55;;;12.80;99.90;;;;;;5096904;28;20094;-67
2022/12/31 09:40:46;;;;;;;169.43;160.00;;;12.80;99.90;;;;;;5095705;28;20043;-67
2022/12/31 09:43:49;;;;;;;168.63;159.55;;;12.80;99.90;;;;;;5096773;28;20115;-67
2022/12/31 09:46:26;;;;;;;167.40;158.00;;;12.90;99.90;;;;;;5096312;28;20040;-67
2022/12/31 09:49:38;;;;;;;165.15;155.98;;;12.90;99.90;;;;;;5096360;28;20101;-67
2022/12/31 09:52:24;;;;;;;162.27;153.35;;;12.90;99.90;;;;;;5077565;28;20078;-68
2022/12/31 09:55:08;;;;;;;167.40;158.17;;;13.00;99.90;;;;;;5089171;28;20064;-68
2022/12/31 09:57:59;;;;;;;165.45;156.43;;;13.00;99.90;;;;;;5096625;28;20177;-68
2022/12/31 10:00:49;;;;;;;165.70;156.95;;;13.00;99.90;;;;;;5096344;28;20051;-67
2022/12/31 10:03:50;;;;;;;167.65;158.57;;;13.00;99.90;;;;;;5095530;28;20056;-67
2022/12/31 10:06:22;;;;;;;171.90;162.65;;;13.00;99.90;;;;;;5096565;28;20047;-68
2022/12/31 10:09:06;;;;;;;173.20;163.93;;;13.10;99.90;;;;;;5096466;28;20056;-71
2022/12/31 10:11:47;;;;;;;178.50;169.07;;;13.10;99.90;;;;;;5096421;28;20252;-68
2022/12/31 10:14:16;;;;;;;190.43;179.82;;;13.10;99.90;;;;;;5096140;28;20046;-68
2022/12/31 10:17:04;;;;;;;194.65;183.82;;;13.20;99.90;;;;;;5095442;28;20036;-67
2022/12/31 10:19:43;;;;;;;194.50;183.68;;;13.20;99.90;;;;;;5096399;28;20039;-68
2022/12/31 10:22:24;;;;;;;193.18;182.63;;;13.30;99.90;;;;;;5095908;28;20040;-67
2022/12/31 10:25:20;;;;;;;193.95;183.85;;;13.30;99.90;;;;;;5089746;28;20115;-70
2022/12/31 10:28:11;;;;;;;193.50;183.18;;;13.40;99.90;;;;;;5096426;28;20074;-68
2022/12/31 10:30:42;;;;;;;191.00;180.82;;;13.40;99.90;;;;;;5096211;28;20036;-67
2022/12/31 10:33:20;;;;;;;189.98;179.88;;;13.40;99.90;;;;;;5078324;28;20051;-67
2022/12/31 10:36:14;;;;;;;199.68;189.00;;;13.50;99.90;;;;;;5095847;28;20529;-67
2022/12/31 10:39:06;;;;;;;189.27;179.32;;;13.50;99.90;;;;;;5095964;28;20040;-67
2022/12/31 10:41:50;;;;;;;181.50;171.93;;;13.50;99.90;;;;;;5096147;28;20389;-70
2022/12/31 10:44:37;;;;;;;183.98;173.88;;;13.50;99.90;;;;;;5099363;28;20132;-68
2022/12/31 10:47:45;;;;;;;194.02;183.05;;;13.60;99.90;;;;;;5098482;28;20055;-68
2022/12/31 10:50:48;;;;;;;190.45;180.18;;;13.60;99.90;;;;;;5099811;28;20043;-68
2022/12/31 10:53:40;;;;;;;178.48;168.88;;;13.60;99.90;;;;;;5099636;28;20079;-68
2022/12/31 10:56:43;;;;;;;180.10;170.82;;;13.60;99.90;;;;;;5099614;28;20097;-67
2022/12/31 10:59:33;;;;;;;175.15;166.27;;;13.60;99.90;;;;;;5099561;28;20056;-67
2022/12/31 11:02:05;;;;;;;179.93;170.48;;;13.70;99.90;;;;;;5099464;28;20050;-67
2022/12/31 11:05:02;;;;;;;189.40;179.45;;;13.70;99.90;;;;;;5099434;28;20044;-68
2022/12/31 11:07:34;;;;;;;;;;;13.80;99.90;;;;;;5100092;28;20036;-67
2022/12/31 11:10:18;;;;;;;187.77;177.50;;;13.80;99.90;;;;;;5099340;28;20010;-68
2022/12/31 11:12:47;;;;;;;191.73;181.25;;;13.80;99.90;;;;;;5099270;28;20055;-68
2022/12/31 11:15:34;;;;;;;192.15;181.70;;;13.80;99.90;;;;;;5098485;28;20381;-67
2022/12/31 11:18:37;;;;;;;176.95;167.00;;;13.90;99.90;;;;;;5080899;28;20048;-68
2022/12/31 11:21:42;;;;;;;187.90;177.65;;;13.80;99.90;;;;;;5099159;28;20034;-67
2022/12/31 11:24:17;;;;;;;202.23;191.25;;;13.80;99.90;;;;;;5099089;28;20036;-72
2022/12/31 11:26:52;;;;;;;206.38;194.52;;;13.80;99.90;;;;;;5097917;28;20040;-79
2022/12/31 11:29:38;;;;;;;223.00;209.55;;;13.70;99.90;;;;;;5097593;28;20349;-69
2022/12/31 11:32:24;;;;;;;231.52;216.52;;;13.80;99.90;;;;;;5099043;28;20047;-84
2022/12/31 11:34:59;;;;;;;202.40;191.35;;;13.80;99.90;;;;;;5097742;28;20044;-69
2022/12/31 11:37:44;;;;;;;161.13;152.30;;;13.90;99.90;;;;;;5098300;28;20056;-69
2022/12/31 11:40:35;;;;;;;171.75;162.70;;;13.90;99.90;;;;;;5098801;28;20040;-75
2022/12/31 11:43:10;;;;;;;189.05;179.02;;;13.90;99.90;;;;;;5097398;28;20040;-68
2022/12/31 11:45:58;;;;;;;180.07;170.38;;;14.00;99.90;;;;;;5098294;28;20093;-68
2022/12/31 11:48:35;;;;;;;188.20;178.07;;;14.10;99.90;;;;;;5098225;28;20077;-68
2022/12/31 11:51:07;;;;;;;194.50;183.50;;;14.10;99.90;;;;;;5097538;28;20037;-68
2022/12/31 11:54:00;;;;;;;194.75;184.07;;;14.10;99.90;;;;;;5096808;28;20040;-68
2022/12/31 11:56:39;;;;;;;208.23;196.80;;;14.20;99.90;;;;;;5097524;28;20054;-68
2022/12/31 11:59:10;;;;;;;201.88;190.80;;;14.10;99.90;;;;;;5098458;28;20094;-68
2022/12/31 12:01:48;;;;;;;202.38;191.65;;;14.00;99.90;;;;;;5080163;28;20079;-69
2022/12/31 12:04:14;;;;;;;210.48;199.20;;;14.00;99.90;;;;;;5098329;28;20051;-68
2022/12/31 12:06:40;;;;;;;213.05;201.30;;;14.00;99.90;;;;;;5097143;28;20340;-68
2022/12/31 12:09:13;;;;;;;209.07;197.35;;;14.00;99.90;;;;;;5097931;28;20039;-68
2022/12/31 12:11:39;;;;;;;211.30;199.50;;;14.00;99.90;;;;;;5096780;28;20051;-72
2022/12/31 12:14:36;;;;;;;214.55;202.60;;;14.00;99.90;;;;;;5097810;28;20460;-69
2022/12/31 12:17:07;;;;;;;209.38;197.82;;;14.00;99.90;;;;;;5096905;28;20487;-68
2022/12/31 12:19:35;;;;;;;208.40;197.23;;;14.00;99.90;;;;;;5097804;28;20032;-69
2022/12/31 12:22:12;;;;;;;216.52;204.05;;;14.00;99.90;;;;;;5097935;28;20036;-69
2022/12/31 12:24:38;;;;;;;221.02;208.23;;;14.10;99.90;;;;;;5097903;28;20044;-68
2022/12/31 12:27:04;;;;;;;213.30;201.52;;;14.00;99.90;;;;;;5097648;28;20052;-69
2022/12/31 12:29:35;;;;;;;221.95;209.63;;;14.10;99.90;;;;;;5097845;28;20040;-68
2022/12/31 12:32:23;;;;;;;219.15;206.82;;;14.10;99.90;;;;;;5097688;28;20123;-68
2022/12/31 12:34:50;;;;;;;222.70;210.38;;;14.00;99.90;;;;;;5097782;28;20040;-68
2022/12/31 12:37:32;;;;;;;225.80;213.10;;;14.00;99.90;;;;;;5097289;28;20073;-68
2022/12/31 12:40:22;;;;;;;229.65;216.65;;;14.10;99.90;;;;;;5096472;28;20044;-69
2022/12/31 12:42:50;;;;;;;228.38;215.48;;;14.10;99.90;;;;;;5095328;28;20044;-69
2022/12/31 12:45:22;;;;;;;218.57;206.48;;;14.20;99.90;;;;;;5096815;28;20066;-68
2022/12/31 12:47:54;;;;;;;217.10;204.85;;;14.10;99.90;;;;;;5097175;28;20043;-68
2022/12/31 12:50:23;;;;;;;197.95;187.40;;;14.10;99.90;;;;;;5096098;28;20043;-68